Time;durP1;ratioP1;P1;durP2;ratioP2;P2;SDS_P1;SDS_P2;PMS_P1;PMS_P2;Temp;Humidity;BMP_temperature;BMP_pressure;BME280_temperature;BME280_humidity;BME280_pressure;Samples;Min_cycle;Max_cycle;Signal;HPM_P1;HPM_P2
2023/10/27 00:01:39;0.00;0.00;0.62;0.00;0.00;0.62;4.50;3.53;;;23.80;29.80;;;;;;2262663;61;20449;-62
2023/10/27 00:04:24;0.00;0.00;0.62;0.00;0.00;0.62;4.10;3.07;;;23.80;29.80;;;;;;2262392;61;20441;-62
2023/10/27 00:07:10;0.00;0.00;0.62;0.00;0.00;0.62;4.07;3.00;;;23.80;29.80;;;;;;2262566;61;20373;-62
2023/10/27 00:09:54;0.00;0.00;0.62;0.00;0.00;0.62;3.63;3.33;;;23.80;29.70;;;;;;2258829;61;20361;-62
2023/10/27 00:12:39;0.00;0.00;0.62;0.00;0.00;0.62;4.00;2.93;;;23.80;29.80;;;;;;2258586;61;20365;-61
2023/10/27 00:15:24;0.00;0.00;0.62;0.00;0.00;0.62;3.23;2.70;;;23.80;29.80;;;;;;2258623;61;20369;-62
2023/10/27 00:18:08;0.00;0.00;0.62;0.00;0.00;0.62;4.20;3.37;;;23.80;29.80;;;;;;2254788;61;20374;-61
2023/10/27 00:20:53;0.00;0.00;0.62;0.00;0.00;0.62;5.43;3.23;;;23.80;29.80;;;;;;2258662;61;20417;-62
2023/10/27 00:23:39;0.00;0.00;0.62;0.00;0.00;0.62;3.50;3.20;;;23.70;29.70;;;;;;2258808;61;20389;-61
2023/10/27 00:26:23;0.00;0.00;0.62;0.00;0.00;0.62;2.73;2.40;;;23.80;29.80;;;;;;2258352;61;20926;-61
2023/10/27 00:29:09;0.00;0.00;0.62;0.00;0.00;0.62;3.53;3.00;;;23.80;29.80;;;;;;2254833;61;20443;-63
2023/10/27 00:31:54;0.00;0.00;0.62;0.00;0.00;0.62;4.03;3.10;;;23.70;29.70;;;;;;2258648;61;20421;-62
2023/10/27 00:34:38;0.00;0.00;0.62;0.00;0.00;0.62;2.80;2.50;;;23.70;29.70;;;;;;2258637;61;20773;-62
2023/10/27 00:37:23;0.00;0.00;0.62;0.00;0.00;0.62;4.50;3.80;;;23.70;29.70;;;;;;2258714;61;20365;-61
2023/10/27 00:40:11;0.00;0.00;0.62;0.00;0.00;0.62;4.30;3.30;;;23.70;29.70;;;;;;2254805;61;20434;-62
2023/10/27 00:42:57;0.00;0.00;0.62;0.00;0.00;0.62;4.20;3.47;;;23.70;29.70;;;;;;2255421;61;20390;-61
2023/10/27 00:45:42;0.00;0.00;0.62;0.00;0.00;0.62;3.70;3.30;;;23.70;29.70;;;;;;2255198;61;20458;-62
2023/10/27 00:48:28;0.00;0.00;0.62;0.00;0.00;0.62;3.67;3.27;;;23.70;29.70;;;;;;2254648;61;20362;-61
2023/10/27 00:51:12;0.00;0.00;0.62;0.00;0.00;0.62;3.83;3.30;;;23.70;29.70;;;;;;2258600;61;20830;-59
2023/10/27 00:53:59;0.00;0.00;0.62;0.00;0.00;0.62;4.10;2.97;;;23.70;29.70;;;;;;2258409;61;20382;-62
2023/10/27 00:56:45;0.00;0.00;0.62;0.00;0.00;0.62;2.80;2.50;;;23.70;29.70;;;;;;2261865;61;20372;-62
2023/10/27 00:59:32;0.00;0.00;0.62;0.00;0.00;0.62;3.73;3.13;;;23.70;29.70;;;;;;2258830;61;20388;-62
2023/10/27 01:02:18;0.00;0.00;0.62;0.00;0.00;0.62;3.30;2.70;;;23.70;29.70;;;;;;2256395;61;20373;-62
2023/10/27 01:05:04;0.00;0.00;0.62;0.00;0.00;0.62;3.67;2.83;;;23.70;29.70;;;;;;2420491;45;20362;-61
2023/10/27 01:07:49;0.00;0.00;0.62;0.00;0.00;0.62;3.80;2.93;;;23.70;29.70;;;;;;2262401;61;20449;-60
2023/10/27 01:10:34;0.00;0.00;0.62;0.00;0.00;0.62;3.53;2.80;;;23.70;29.70;;;;;;2699938;45;20852;-62
2023/10/27 01:13:19;0.00;0.00;0.62;0.00;0.00;0.62;3.77;2.70;;;23.70;29.70;;;;;;2258322;61;20386;-62
2023/10/27 01:16:06;0.00;0.00;0.62;0.00;0.00;0.62;3.53;3.23;;;23.70;29.70;;;;;;2258478;61;20370;-62
2023/10/27 01:18:51;0.00;0.00;0.62;0.00;0.00;0.62;3.40;2.90;;;23.70;29.70;;;;;;2254709;61;20442;-61
2023/10/27 01:21:35;0.00;0.00;0.62;0.00;0.00;0.62;3.23;2.63;;;23.70;29.70;;;;;;2255707;61;20381;-60
2023/10/27 01:27:28;0.00;0.00;0.62;0.00;0.00;0.62;3.30;2.83;;;23.70;29.70;;;;;;2260277;61;20938;-61
2023/10/27 01:30:13;0.00;0.00;0.62;0.00;0.00;0.62;3.47;2.97;;;23.70;29.70;;;;;;2259073;61;20577;-61
2023/10/27 01:32:58;0.00;0.00;0.62;0.00;0.00;0.62;3.67;3.07;;;23.70;29.70;;;;;;2258858;61;20402;-61
2023/10/27 01:35:42;0.00;0.00;0.62;0.00;0.00;0.62;3.70;3.30;;;23.70;29.70;;;;;;2255809;61;20397;-61
2023/10/27 01:38:27;0.00;0.00;0.62;0.00;0.00;0.62;3.60;3.03;;;23.70;30.20;;;;;;2258804;61;20378;-62
2023/10/27 01:41:11;0.00;0.00;0.62;0.00;0.00;0.62;3.20;2.83;;;23.70;29.70;;;;;;2255626;61;20437;-60
2023/10/27 01:46:33;0.00;0.00;0.62;0.00;0.00;0.62;2.87;2.47;;;23.70;29.70;;;;;;2256682;61;20375;-60
2023/10/27 01:49:18;0.00;0.00;0.62;0.00;0.00;0.62;2.83;2.20;;;23.70;29.70;;;;;;2484798;53;20368;-61
2023/10/27 01:52:03;0.00;0.00;0.62;0.00;0.00;0.62;3.40;3.07;;;23.70;29.70;;;;;;2251105;61;20908;-61
2023/10/27 01:54:48;0.00;0.00;0.62;0.00;0.00;0.62;2.80;2.50;;;23.70;29.70;;;;;;2250703;61;21031;-59
2023/10/27 01:57:32;0.00;0.00;0.62;0.00;0.00;0.62;3.37;2.67;;;23.70;29.70;;;;;;2251274;61;20366;-63
2023/10/27 02:00:17;0.00;0.00;0.62;0.00;0.00;0.62;2.63;2.40;;;23.60;29.60;;;;;;2249146;61;20418;-61
2023/10/27 02:03:07;0.00;0.00;0.62;0.00;0.00;0.62;2.60;2.30;;;23.60;29.60;;;;;;2470233;40;21583;31
2023/10/27 02:05:52;0.00;0.00;0.62;0.00;0.00;0.62;2.83;2.57;;;23.60;29.60;;;;;;2245438;61;20375;-61
2023/10/27 02:08:38;0.00;0.00;0.62;0.00;0.00;0.62;3.17;2.47;;;23.70;29.70;;;;;;2243639;61;20419;-58
2023/10/27 02:11:23;0.00;0.00;0.62;0.00;0.00;0.62;3.27;2.43;;;23.60;29.60;;;;;;2246736;61;20416;-61
2023/10/27 02:14:08;0.00;0.00;0.62;0.00;0.00;0.62;3.53;2.50;;;23.60;29.60;;;;;;2247062;61;20396;-61
2023/10/27 02:16:53;0.00;0.00;0.62;0.00;0.00;0.62;3.27;2.63;;;23.60;29.60;;;;;;2247131;61;20893;-60
2023/10/27 02:19:39;0.00;0.00;0.62;0.00;0.00;0.62;2.63;2.30;;;23.60;29.60;;;;;;2246879;61;20379;-60
2023/10/27 02:22:23;0.00;0.00;0.62;0.00;0.00;0.62;2.73;2.40;;;23.60;29.60;;;;;;2244048;61;20388;-61
2023/10/27 02:25:08;0.00;0.00;0.62;0.00;0.00;0.62;2.33;1.93;;;23.60;29.60;;;;;;2243630;61;20392;-61
2023/10/27 02:27:53;0.00;0.00;0.62;0.00;0.00;0.62;3.53;2.63;;;23.60;29.60;;;;;;2246855;61;20373;-60
2023/10/27 02:30:37;0.00;0.00;0.62;0.00;0.00;0.62;2.77;2.30;;;23.60;29.60;;;;;;2244156;61;20368;-61
2023/10/27 02:33:22;0.00;0.00;0.62;0.00;0.00;0.62;3.07;2.53;;;23.60;29.60;;;;;;2246517;61;20436;-59
2023/10/27 02:36:08;0.00;0.00;0.62;0.00;0.00;0.62;2.70;2.00;;;23.60;29.60;;;;;;2247002;61;20372;-63
2023/10/27 02:38:54;0.00;0.00;0.62;0.00;0.00;0.62;3.07;2.47;;;23.60;29.60;;;;;;2243477;61;20377;-61
2023/10/27 02:41:39;0.00;0.00;0.62;0.00;0.00;0.62;2.60;2.07;;;23.60;29.60;;;;;;2246900;61;20404;-61
2023/10/27 02:44:23;0.00;0.00;0.62;0.00;0.00;0.62;2.80;2.40;;;23.60;29.60;;;;;;2246788;58;20487;-61
2023/10/27 02:47:08;0.00;0.00;0.62;0.00;0.00;0.62;2.23;1.90;;;23.60;29.60;;;;;;2243612;61;20836;-60
2023/10/27 02:49:52;0.00;0.00;0.62;0.00;0.00;0.62;3.20;2.57;;;23.60;29.60;;;;;;2246897;61;20424;-58
2023/10/27 02:52:38;0.00;0.00;0.62;0.00;0.00;0.62;2.67;2.37;;;23.60;29.50;;;;;;2247199;61;20424;-61
2023/10/27 02:55:23;0.00;0.00;0.62;0.00;0.00;0.62;2.50;2.00;;;23.60;29.60;;;;;;2246684;61;20404;-59
2023/10/27 02:58:07;0.00;0.00;0.62;0.00;0.00;0.62;2.87;2.03;;;23.60;29.60;;;;;;2246546;61;20372;-60
2023/10/27 03:00:52;0.00;0.00;0.62;0.00;0.00;0.62;3.00;2.40;;;23.60;30.00;;;;;;2246799;61;20396;-59
2023/10/27 03:03:36;0.00;0.00;0.62;0.00;0.00;0.62;3.63;2.03;;;23.60;29.60;;;;;;2246776;61;20806;-63
2023/10/27 03:06:22;0.00;0.00;0.62;0.00;0.00;0.62;2.90;2.07;;;23.60;29.60;;;;;;2243746;61;20840;-60
2023/10/27 03:09:08;0.00;0.00;0.62;0.00;0.00;0.62;2.83;1.97;;;23.60;29.60;;;;;;2246652;61;20796;-61
2023/10/27 03:11:52;0.00;0.00;0.62;0.00;0.00;0.62;2.87;2.50;;;23.60;29.60;;;;;;2247079;61;20457;-61
2023/10/27 03:14:37;0.00;0.00;0.62;0.00;0.00;0.62;2.53;1.97;;;23.60;29.60;;;;;;2246704;61;20392;-61
2023/10/27 03:17:22;0.00;0.00;0.62;0.00;0.00;0.62;2.60;2.40;;;23.60;29.60;;;;;;2247008;61;20773;-61
2023/10/27 03:20:08;0.00;0.00;0.62;0.00;0.00;0.62;2.63;2.00;;;23.60;29.60;;;;;;2246625;61;20804;-61
2023/10/27 03:22:53;0.00;0.00;0.62;0.00;0.00;0.62;2.37;2.00;;;23.60;29.60;;;;;;2246714;61;20427;-61
2023/10/27 03:25:39;0.00;0.00;0.62;0.00;0.00;0.62;2.80;2.10;;;23.60;29.60;;;;;;2246968;61;20372;-59
2023/10/27 03:28:23;0.00;0.00;0.62;0.00;0.00;0.62;2.77;2.17;;;23.50;29.50;;;;;;2246788;61;20591;-66
2023/10/27 03:31:09;0.00;0.00;0.62;0.00;0.00;0.62;2.20;1.80;;;23.50;29.50;;;;;;2246282;61;20364;-59
2023/10/27 03:33:54;0.00;0.00;0.62;0.00;0.00;0.62;2.63;2.10;;;23.50;29.50;;;;;;2243448;61;20383;-61
2023/10/27 03:36:38;0.00;0.00;0.62;0.00;0.00;0.62;2.70;2.03;;;23.50;29.50;;;;;;2246856;61;20373;-60
2023/10/27 03:39:23;0.00;0.00;0.62;0.00;0.00;0.62;2.63;1.93;;;23.50;29.50;;;;;;2246179;61;20934;-61
2023/10/27 03:42:09;0.00;0.00;0.62;0.00;0.00;0.62;2.20;1.90;;;23.50;29.50;;;;;;2246632;61;20384;-60
2023/10/27 03:44:54;0.00;0.00;0.62;0.00;0.00;0.62;3.00;2.03;;;23.50;29.50;;;;;;2246808;61;20415;-62
2023/10/27 03:47:39;0.00;0.00;0.62;0.00;0.00;0.62;2.30;1.90;;;23.50;29.50;;;;;;2246291;61;20420;-60
2023/10/27 03:50:25;0.00;0.00;0.62;0.00;0.00;0.62;2.70;1.83;;;23.50;29.50;;;;;;2243635;61;20396;-61
2023/10/27 03:53:10;0.00;0.00;0.62;0.00;0.00;0.62;2.50;1.73;;;23.50;29.50;;;;;;2243620;61;20393;-61
2023/10/27 03:55:54;0.00;0.00;0.62;0.00;0.00;0.62;2.43;2.00;;;23.50;29.50;;;;;;2246942;61;20368;-61
2023/10/27 03:58:40;0.00;0.00;0.62;0.00;0.00;0.62;2.40;1.73;;;23.50;29.50;;;;;;2246103;61;20420;-63
2023/10/27 04:01:27;0.00;0.00;0.62;0.00;0.00;0.62;2.10;1.70;;;23.50;29.50;;;;;;2246187;61;20451;-62
2023/10/27 04:04:12;0.00;0.00;0.62;0.00;0.00;0.62;2.60;1.63;;;23.50;29.50;;;;;;2243654;61;20483;-61
2023/10/27 04:06:57;0.00;0.00;0.62;0.00;0.00;0.62;2.23;1.80;;;23.50;29.50;;;;;;2246482;61;20504;-61
2023/10/27 04:09:42;0.00;0.00;0.62;0.00;0.00;0.62;2.10;1.80;;;23.50;29.50;;;;;;2243145;61;20423;-62
2023/10/27 04:12:26;0.00;0.00;0.62;0.00;0.00;0.62;2.30;1.60;;;23.50;29.50;;;;;;2246680;61;20380;-61
2023/10/27 04:15:12;0.00;0.00;0.62;0.00;0.00;0.62;2.03;1.60;;;23.50;29.50;;;;;;2246302;61;20388;-60
2023/10/27 04:17:57;0.00;0.00;0.62;0.00;0.00;0.62;2.03;1.40;;;23.50;29.50;;;;;;2242779;61;20373;-61
2023/10/27 04:20:41;0.00;0.00;0.62;0.00;0.00;0.62;2.20;1.70;;;23.50;29.50;;;;;;2246470;61;20387;-61
2023/10/27 04:23:26;0.00;0.00;0.62;0.00;0.00;0.62;2.00;1.80;;;23.50;29.50;;;;;;2246575;61;20428;-61
2023/10/27 04:26:11;0.00;0.00;0.62;0.00;0.00;0.62;2.17;1.50;;;23.50;29.50;;;;;;2243642;61;20412;-61
2023/10/27 04:28:56;0.00;0.00;0.62;0.00;0.00;0.62;2.33;1.90;;;23.50;29.60;;;;;;2246510;61;20377;-61
2023/10/27 04:31:41;0.00;0.00;0.62;0.00;0.00;0.62;2.60;1.57;;;23.50;29.50;;;;;;2246397;61;20364;-61
2023/10/27 04:34:26;0.00;0.00;0.62;0.00;0.00;0.62;2.30;1.80;;;23.50;29.50;;;;;;2246396;61;20384;-63
2023/10/27 04:37:11;0.00;0.00;0.62;0.00;0.00;0.62;2.23;1.80;;;23.50;29.50;;;;;;2246735;61;20408;-61
2023/10/27 04:39:55;0.00;0.00;0.62;0.00;0.00;0.62;2.10;1.60;;;23.50;29.50;;;;;;2245717;61;20999;-62
2023/10/27 04:42:40;0.00;0.00;0.62;0.00;0.00;0.62;2.10;1.70;;;23.50;29.50;;;;;;2246049;61;20885;-61
2023/10/27 04:45:25;0.00;0.00;0.62;0.00;0.00;0.62;2.37;1.83;;;23.50;29.60;;;;;;2246177;61;20373;-58
2023/10/27 04:48:11;0.00;0.00;0.62;0.00;0.00;0.62;2.70;1.73;;;23.50;29.60;;;;;;2246272;61;20833;-61
2023/10/27 04:50:58;0.00;0.00;0.62;0.00;0.00;0.62;2.90;2.10;;;23.50;29.50;;;;;;2246467;61;21064;-61
2023/10/27 04:53:43;0.00;0.00;0.62;0.00;0.00;0.62;3.43;2.30;;;23.40;29.50;;;;;;2246212;61;20412;-62
2023/10/27 04:56:29;0.00;0.00;0.62;0.00;0.00;0.62;2.00;1.50;;;23.40;29.50;;;;;;2246549;61;20367;-61
2023/10/27 04:59:14;0.00;0.00;0.62;0.00;0.00;0.62;2.67;1.93;;;23.40;29.50;;;;;;2246049;61;20454;-62
2023/10/27 05:01:59;0.00;0.00;0.62;0.00;0.00;0.62;2.57;2.20;;;23.40;29.50;;;;;;2246258;61;20946;-61
2023/10/27 05:04:46;0.00;0.00;0.62;0.00;0.00;0.62;2.73;2.30;;;23.40;29.50;;;;;;2247031;61;20432;-61
2023/10/27 05:07:31;0.00;0.00;0.62;0.00;0.00;0.62;3.13;2.57;;;23.40;29.50;;;;;;2246906;61;20395;-65
2023/10/27 05:10:16;0.00;0.00;0.62;0.00;0.00;0.62;3.07;2.30;;;23.40;29.50;;;;;;2247182;61;20452;-61
2023/10/27 05:13:03;0.00;0.00;0.62;0.00;0.00;0.62;3.43;2.43;;;23.40;29.50;;;;;;2247222;61;20432;-61
2023/10/27 05:15:54;0.00;0.00;0.62;0.00;0.00;0.62;3.00;2.20;;;23.40;29.50;;;;;;2247221;61;20508;-61
2023/10/27 05:18:39;0.00;0.00;0.62;0.00;0.00;0.62;3.00;2.40;;;23.50;29.60;;;;;;2243828;61;20377;-59
2023/10/27 05:21:26;0.00;0.00;0.62;0.00;0.00;0.62;3.70;2.77;;;23.40;29.50;;;;;;2247493;61;20391;-62
2023/10/27 05:24:11;0.00;0.00;0.62;0.00;0.00;0.62;3.90;2.73;;;23.40;29.50;;;;;;2244079;61;20383;-62
2023/10/27 05:26:56;0.00;0.00;0.62;0.00;0.00;0.62;3.50;2.80;;;23.40;29.50;;;;;;2247304;61;20446;-62
2023/10/27 05:29:41;0.00;0.00;0.62;0.00;0.00;0.62;4.07;3.27;;;23.40;29.50;;;;;;2243712;61;20411;-61
2023/10/27 05:32:25;0.00;0.00;0.62;0.00;0.00;0.62;4.63;3.43;;;23.40;29.50;;;;;;2247308;61;20412;-60
2023/10/27 05:35:10;0.00;0.00;0.62;0.00;0.00;0.62;3.33;3.00;;;23.40;29.50;;;;;;2247052;61;20368;-61
2023/10/27 05:37:56;0.00;0.00;0.62;0.00;0.00;0.62;3.27;2.97;;;23.40;30.00;;;;;;2243516;61;20364;-61
2023/10/27 05:40:41;0.00;0.00;0.62;0.00;0.00;0.62;4.20;3.30;;;23.40;29.50;;;;;;2247170;61;20388;-61
2023/10/27 05:43:25;0.00;0.00;0.62;0.00;0.00;0.62;3.57;3.10;;;23.40;29.50;;;;;;2247132;61;20432;-62
2023/10/27 05:46:10;0.00;0.00;0.62;0.00;0.00;0.62;4.27;3.23;;;23.40;29.50;;;;;;2246752;61;20368;-61
2023/10/27 05:49:00;0.00;0.00;0.62;0.00;0.00;0.62;3.97;3.27;;;23.40;29.50;;;;;;2246965;61;20371;-61
2023/10/27 05:51:46;0.00;0.00;0.62;0.00;0.00;0.62;3.90;3.03;;;23.40;29.50;;;;;;2247200;61;20460;-62
2023/10/27 05:54:32;0.00;0.00;0.62;0.00;0.00;0.62;3.93;3.53;;;23.40;29.50;;;;;;2277402;56;20413;-62
2023/10/27 05:57:17;0.00;0.00;0.62;0.00;0.00;0.62;3.37;3.00;;;23.40;29.50;;;;;;2255678;61;20381;-61
2023/10/27 06:00:01;0.00;0.00;0.62;0.00;0.00;0.62;4.00;2.83;;;23.40;29.50;;;;;;2258708;61;20444;-62
2023/10/27 06:02:48;0.00;0.00;0.62;0.00;0.00;0.62;4.00;3.37;;;23.40;29.60;;;;;;2259052;61;20964;-62
2023/10/27 06:05:33;0.00;0.00;0.62;0.00;0.00;0.62;3.27;2.67;;;23.40;29.50;;;;;;2259090;61;20389;-60
2023/10/27 06:08:17;0.00;0.00;0.62;0.00;0.00;0.62;3.10;2.80;;;23.40;29.50;;;;;;2258920;61;21011;-61
2023/10/27 06:11:03;0.00;0.00;0.62;0.00;0.00;0.62;3.53;3.13;;;23.40;29.50;;;;;;2263361;61;20491;-61
2023/10/27 06:13:49;0.00;0.00;0.62;0.00;0.00;0.62;4.00;3.43;;;23.40;29.50;;;;;;2262934;61;20389;-61
2023/10/27 06:16:34;0.00;0.00;0.62;0.00;0.00;0.62;3.90;2.93;;;23.30;29.50;;;;;;2262963;61;20405;-60
2023/10/27 06:19:20;0.00;0.00;0.62;0.00;0.00;0.62;3.53;3.07;;;23.30;29.50;;;;;;2262841;61;20365;-59
2023/10/27 06:22:05;0.00;0.00;0.62;0.00;0.00;0.62;4.23;2.90;;;23.40;29.50;;;;;;2263019;61;20361;-61
2023/10/27 06:24:50;0.00;0.00;0.62;0.00;0.00;0.62;3.80;3.20;;;23.40;29.50;;;;;;2262957;61;20447;-61
2023/10/27 06:27:39;0.00;0.00;0.62;0.00;0.00;0.62;3.33;3.03;;;23.40;29.50;;;;;;2262945;61;20476;-61
2023/10/27 06:30:24;0.00;0.00;0.62;0.00;0.00;0.62;4.57;3.37;;;23.30;29.50;;;;;;2262713;61;21198;-62
2023/10/27 06:33:09;0.00;0.00;0.62;0.00;0.00;0.62;4.53;3.63;;;23.30;29.50;;;;;;2262919;61;20380;-61
2023/10/27 06:35:55;0.00;0.00;0.62;0.00;0.00;0.62;4.90;3.63;;;23.30;29.50;;;;;;2263002;61;20410;-61
2023/10/27 06:38:40;0.00;0.00;0.62;0.00;0.00;0.62;3.60;3.20;;;23.30;29.50;;;;;;2262677;61;20369;-61
2023/10/27 06:41:24;0.00;0.00;0.62;0.00;0.00;0.62;3.93;3.13;;;23.30;29.50;;;;;;2262861;61;20439;-61
2023/10/27 06:44:10;0.00;0.00;0.62;0.00;0.00;0.62;3.67;3.30;;;23.30;29.50;;;;;;2259669;61;20388;-61
2023/10/27 06:46:56;0.00;0.00;0.62;0.00;0.00;0.62;4.93;4.43;;;23.30;29.50;;;;;;2263025;61;20385;-61
2023/10/27 06:49:40;0.00;0.00;0.62;0.00;0.00;0.62;6.03;4.73;;;23.30;29.50;;;;;;2262416;61;20392;-60
2023/10/27 06:52:25;0.00;0.00;0.62;0.00;0.00;0.62;3.97;3.57;;;23.30;29.50;;;;;;2262901;61;20392;-61
2023/10/27 06:55:12;0.00;0.00;0.62;0.00;0.00;0.62;5.20;4.40;;;23.30;29.50;;;;;;2262714;61;20400;-67
2023/10/27 06:57:56;0.00;0.00;0.62;0.00;0.00;0.62;5.67;4.53;;;23.30;29.50;;;;;;2262443;61;20377;-61
2023/10/27 07:00:42;0.00;0.00;0.62;0.00;0.00;0.62;5.13;3.93;;;23.30;29.50;;;;;;2262890;61;20475;-61
2023/10/27 07:03:27;0.00;0.00;0.62;0.00;0.00;0.62;5.03;4.17;;;23.30;29.50;;;;;;2262564;61;20800;-61
2023/10/27 07:06:12;0.00;0.00;0.62;0.00;0.00;0.62;5.37;4.33;;;23.30;29.50;;;;;;2262924;61;20920;-61
2023/10/27 07:08:57;0.00;0.00;0.62;0.00;0.00;0.62;7.00;6.00;;;23.30;29.50;;;;;;2261027;61;20378;-59
2023/10/27 07:11:42;0.00;0.00;0.62;0.00;0.00;0.62;6.40;5.80;;;23.30;29.50;;;;;;2255712;61;20940;-61
2023/10/27 07:14:27;0.00;0.00;0.62;0.00;0.00;0.62;6.67;5.20;;;23.30;29.50;;;;;;2258358;61;20822;-65
2023/10/27 07:17:13;0.00;0.00;0.62;0.00;0.00;0.62;6.83;5.60;;;23.30;29.50;;;;;;2259014;61;20366;-61
2023/10/27 07:19:58;0.00;0.00;0.62;0.00;0.00;0.62;7.40;6.33;;;23.30;29.50;;;;;;2258475;61;20416;-61
2023/10/27 07:22:43;0.00;0.00;0.62;0.00;0.00;0.62;7.93;5.93;;;23.30;29.50;;;;;;2258685;61;20366;-59
2023/10/27 07:25:29;0.00;0.00;0.62;0.00;0.00;0.62;5.93;5.30;;;23.30;29.50;;;;;;2259131;61;20365;-64
2023/10/27 07:28:14;0.00;0.00;0.62;0.00;0.00;0.62;7.00;5.70;;;23.30;29.50;;;;;;2258146;61;20427;-61
2023/10/27 07:30:59;0.00;0.00;0.62;0.00;0.00;0.62;6.90;5.73;;;23.30;29.50;;;;;;2258476;61;20401;-60
2023/10/27 07:33:45;0.00;0.00;0.62;0.00;0.00;0.62;8.50;7.30;;;23.30;29.60;;;;;;2252848;61;20477;-59
2023/10/27 07:36:30;0.00;0.00;0.62;0.00;0.00;0.62;7.40;6.13;;;23.30;29.50;;;;;;2258837;61;20366;-61
2023/10/27 07:39:14;0.00;0.00;0.62;0.00;0.00;0.62;8.03;6.93;;;23.30;29.60;;;;;;2258511;61;20930;-61
2023/10/27 07:41:59;0.00;0.00;0.62;0.00;0.00;0.62;8.27;6.40;;;23.30;29.50;;;;;;2255383;61;20451;-61
2023/10/27 07:44:43;0.00;0.00;0.62;0.00;0.00;0.62;7.67;6.30;;;23.30;29.60;;;;;;2258695;61;20385;-56
2023/10/27 07:47:28;0.00;0.00;0.62;0.00;0.00;0.62;7.90;7.10;;;23.30;29.50;;;;;;2258314;61;20417;-61
2023/10/27 07:50:14;0.00;0.00;0.62;0.00;0.00;0.62;8.57;7.37;;;23.30;29.60;;;;;;2258295;61;20445;-59
2023/10/27 07:52:59;0.00;0.00;0.62;0.00;0.00;0.62;7.90;6.87;;;23.30;29.60;;;;;;2258801;61;20385;-59
2023/10/27 07:55:44;0.00;0.00;0.62;0.00;0.00;0.62;8.80;7.17;;;23.30;29.50;;;;;;2258546;61;20555;-61
2023/10/27 07:58:29;0.00;0.00;0.62;0.00;0.00;0.62;9.17;7.10;;;23.30;29.50;;;;;;2258554;61;20373;-61
2023/10/27 08:01:13;0.00;0.00;0.62;0.00;0.00;0.62;8.87;7.00;;;23.30;29.60;;;;;;2255643;61;20474;-61
2023/10/27 08:03:59;0.00;0.00;0.62;0.00;0.00;0.62;7.70;6.70;;;23.30;29.60;;;;;;2258528;61;20862;-61
2023/10/27 08:06:45;0.00;0.00;0.62;0.00;0.00;0.62;10.13;7.60;;;23.30;29.60;;;;;;2258757;61;20793;-60
2023/10/27 08:09:29;0.00;0.00;0.62;0.00;0.00;0.62;8.00;6.67;;;23.30;29.60;;;;;;2260719;61;20411;-61
2023/10/27 08:12:15;0.00;0.00;0.62;0.00;0.00;0.62;9.83;7.43;;;23.30;29.60;;;;;;2262618;61;20356;-61
2023/10/27 08:15:04;0.00;0.00;0.62;0.00;0.00;0.62;8.93;7.40;;;23.30;29.60;;;;;;2262959;61;20384;-59
2023/10/27 08:17:51;0.00;0.00;0.62;0.00;0.00;0.62;9.83;7.87;;;23.30;29.60;;;;;;2261975;61;20399;-61
2023/10/27 08:20:35;0.00;0.00;0.62;0.00;0.00;0.62;7.50;6.07;;;23.30;29.60;;;;;;2259438;61;20412;-58
2023/10/27 08:23:21;0.00;0.00;0.62;0.00;0.00;0.62;8.17;6.57;;;23.30;29.60;;;;;;2259370;61;20385;-58
2023/10/27 08:26:06;0.00;0.00;0.62;0.00;0.00;0.62;8.53;7.50;;;23.30;29.60;;;;;;2262432;61;20393;-58
2023/10/27 08:28:50;0.00;0.00;0.62;0.00;0.00;0.62;7.87;6.77;;;23.30;29.60;;;;;;2261882;61;20368;-59
2023/10/27 08:31:35;0.00;0.00;0.62;0.00;0.00;0.62;8.23;7.07;;;23.30;29.60;;;;;;2259361;61;20411;-60
2023/10/27 08:34:21;0.00;0.00;0.62;0.00;0.00;0.62;8.70;7.20;;;23.30;29.60;;;;;;2262589;61;20408;-61
2023/10/27 08:37:06;0.00;0.00;0.62;0.00;0.00;0.62;8.53;6.93;;;23.30;29.60;;;;;;2262699;61;20811;-61
2023/10/27 08:39:52;0.00;0.00;0.62;0.00;0.00;0.62;8.30;7.20;;;23.30;29.60;;;;;;2259046;61;20373;-61
2023/10/27 08:42:37;0.00;0.00;0.62;0.00;0.00;0.62;7.47;6.53;;;23.30;29.60;;;;;;2260771;61;20374;-61
2023/10/27 08:45:23;0.00;0.00;0.62;0.00;0.00;0.62;8.30;6.83;;;23.30;29.60;;;;;;2258573;61;20792;-61
2023/10/27 08:48:07;0.00;0.00;0.62;0.00;0.00;0.62;7.70;6.80;;;23.30;29.60;;;;;;2258018;61;20415;-61
2023/10/27 08:50:55;0.00;0.00;0.62;0.00;0.00;0.62;7.87;6.60;;;23.30;29.60;;;;;;2258433;61;20362;-61
2023/10/27 08:53:40;0.00;0.00;0.62;0.00;0.00;0.62;8.37;7.10;;;23.30;29.60;;;;;;2258302;61;20429;-64
2023/10/27 08:56:27;0.00;0.00;0.62;0.00;0.00;0.62;7.20;6.40;;;23.30;29.60;;;;;;2258302;61;20769;-68
2023/10/27 08:59:13;0.00;0.00;0.62;0.00;0.00;0.62;8.30;7.30;;;23.30;30.00;;;;;;2258036;61;20377;-62
2023/10/27 09:01:58;0.00;0.00;0.62;0.00;0.00;0.62;7.13;6.23;;;23.30;29.60;;;;;;2258497;61;20898;-62
2023/10/27 09:04:43;0.00;0.00;0.62;0.00;0.00;0.62;8.20;6.97;;;23.30;29.80;;;;;;2258043;61;20377;-62
2023/10/27 09:07:27;0.00;0.00;0.62;0.00;0.00;0.62;8.03;6.93;;;23.30;29.60;;;;;;2258159;61;20445;-61
2023/10/27 09:10:13;0.00;0.00;0.62;0.00;0.00;0.62;7.90;6.00;;;23.30;29.60;;;;;;2258157;61;20409;-59
2023/10/27 09:12:59;0.00;0.00;0.62;0.00;0.00;0.62;8.23;6.90;;;23.30;29.60;;;;;;2258065;61;20513;-61
2023/10/27 09:15:49;0.00;0.00;0.62;0.00;0.00;0.62;8.30;6.33;;;23.30;29.60;;;;;;2258476;61;20406;-62
2023/10/27 09:18:35;0.00;0.00;0.62;0.00;0.00;0.62;8.70;6.80;;;23.30;29.60;;;;;;2258156;61;20446;-62
2023/10/27 09:21:30;0.00;0.00;0.62;0.00;0.00;0.62;8.07;7.03;;;23.30;29.60;;;;;;2258370;61;20397;-61
2023/10/27 09:24:22;0.00;0.00;0.62;0.00;0.00;0.62;8.20;6.53;;;23.30;29.60;;;;;;2258583;61;20441;-64
2023/10/27 09:27:07;0.00;0.00;0.62;0.00;0.00;0.62;7.90;6.57;;;23.30;29.60;;;;;;2258435;61;20444;-61
2023/10/27 09:29:53;0.00;0.00;0.62;0.00;0.00;0.62;7.40;6.47;;;23.30;29.60;;;;;;2258121;61;20365;-60
2023/10/27 09:32:37;0.00;0.00;0.62;0.00;0.00;0.62;8.97;7.47;;;23.30;29.60;;;;;;2258471;61;20562;-62
2023/10/27 09:35:23;0.00;0.00;0.62;0.00;0.00;0.62;8.80;7.23;;;23.30;29.60;;;;;;2254926;61;20370;-62
2023/10/27 09:38:08;0.00;0.00;0.62;0.00;0.00;0.62;9.80;7.70;;;23.30;29.60;;;;;;2254669;61;20366;-61
2023/10/27 09:40:56;0.00;0.00;0.62;0.00;0.00;0.62;7.63;6.83;;;23.30;29.60;;;;;;2258305;61;20393;-63
2023/10/27 09:43:42;0.00;0.00;0.62;0.00;0.00;0.62;7.90;7.07;;;23.30;29.60;;;;;;2258237;61;20381;-64
2023/10/27 09:46:28;0.00;0.00;0.62;0.00;0.00;0.62;8.80;7.13;;;23.30;29.60;;;;;;2258454;61;20369;-60
2023/10/27 09:49:17;0.00;0.00;0.62;0.00;0.00;0.62;6.80;6.07;;;23.30;29.60;;;;;;2254806;61;20408;-61
2023/10/27 09:52:08;0.00;0.00;0.62;0.00;0.00;0.62;8.67;7.57;;;23.30;30.10;;;;;;2257086;61;20393;-60
2023/10/27 09:54:55;0.00;0.00;0.62;0.00;0.00;0.62;8.20;7.17;;;23.30;29.60;;;;;;2257131;61;20437;-59
2023/10/27 09:57:42;0.00;0.00;0.62;0.00;0.00;0.62;8.90;7.73;;;23.30;29.60;;;;;;2257106;61;20366;-55
2023/10/27 10:00:29;0.00;0.00;0.62;0.00;0.00;0.62;9.20;7.60;;;23.30;29.60;;;;;;2257211;61;20977;-59
2023/10/27 10:03:16;0.00;0.00;0.62;0.00;0.00;0.62;7.60;6.57;;;23.30;29.60;;;;;;2256908;61;20941;-61
2023/10/27 10:06:14;0.00;0.00;0.62;0.00;0.00;0.62;8.67;7.23;;;23.30;29.60;;;;;;2257224;61;20420;-56
2023/10/27 10:09:09;0.00;0.00;0.62;0.00;0.00;0.62;9.50;7.30;;;23.30;29.60;;;;;;2258186;61;20399;-57
2023/10/27 10:11:55;0.00;0.00;0.62;0.00;0.00;0.62;8.93;7.97;;;23.30;29.60;;;;;;2260736;61;20384;-57
2023/10/27 10:14:49;0.00;0.00;0.62;0.00;0.00;0.62;8.70;7.17;;;23.30;29.60;;;;;;2261198;61;20793;-60
2023/10/27 10:17:41;0.00;0.00;0.62;0.00;0.00;0.62;8.47;6.80;;;23.30;29.60;;;;;;2261267;61;20376;-57
2023/10/27 10:21:01;0.00;0.00;0.62;0.00;0.00;0.62;9.30;7.57;;;23.30;29.60;;;;;;2261021;61;20405;-59
2023/10/27 10:24:17;0.00;0.00;0.62;0.00;0.00;0.62;9.10;7.70;;;23.30;29.70;;;;;;2260956;61;20393;-57
2023/10/27 10:27:07;0.00;0.00;0.62;0.00;0.00;0.62;8.27;7.27;;;23.30;29.70;;;;;;2257902;61;20898;-57
2023/10/27 10:30:22;0.00;0.00;0.62;0.00;0.00;0.62;9.90;8.13;;;23.30;29.70;;;;;;2260714;61;20376;-59
2023/10/27 10:33:19;0.00;0.00;0.62;0.00;0.00;0.62;8.33;7.17;;;23.30;29.70;;;;;;2260770;61;20393;-57
2023/10/27 10:36:26;0.00;0.00;0.62;0.00;0.00;0.62;8.70;7.40;;;23.30;29.70;;;;;;2260880;61;20400;-58
2023/10/27 10:39:11;0.00;0.00;0.62;0.00;0.00;0.62;8.77;7.40;;;23.30;29.70;;;;;;2260623;61;20415;-58
2023/10/27 10:42:03;0.00;0.00;0.62;0.00;0.00;0.62;8.90;7.93;;;23.30;29.70;;;;;;2260704;61;20801;-57
2023/10/27 10:44:48;0.00;0.00;0.62;0.00;0.00;0.62;9.90;7.97;;;23.30;29.70;;;;;;2260994;61;20427;-58
2023/10/27 10:47:34;0.00;0.00;0.62;0.00;0.00;0.62;9.20;8.10;;;23.30;29.70;;;;;;2260935;61;20427;-60
2023/10/27 10:50:27;0.00;0.00;0.62;0.00;0.00;0.62;10.90;8.40;;;23.30;29.70;;;;;;2260927;61;20394;-56
2023/10/27 10:53:15;0.00;0.00;0.62;0.00;0.00;0.62;9.43;8.43;;;23.30;29.70;;;;;;2261092;61;20436;-55
2023/10/27 10:56:01;0.00;0.00;0.62;0.00;0.00;0.62;10.33;9.13;;;23.30;29.70;;;;;;2260813;61;20897;-59
2023/10/27 10:58:46;0.00;0.00;0.62;0.00;0.00;0.62;9.70;8.30;;;23.30;29.70;;;;;;2260389;61;20380;-60
2023/10/27 11:01:31;0.00;0.00;0.62;0.00;0.00;0.62;9.37;8.10;;;23.30;29.70;;;;;;2260491;61;20538;-56